Terminal Aerodrome Forecast
Issued by NWS

Home | Current Version | Previous Version | Graphics & Text | Print | Product List | Glossary On
Versions: 1 2 3 4 5 6 7 8 9 10 11 12 13 14
000
FTUS45 KGGW 231738
TAFSDY
TAF
KSDY 231738Z 2318/2418 VRB04KT P6SM SCT015 OVC035
     FM240000 VRB03KT P6SM VCSH OVC025
     FM240300 VRB04KT P6SM OVC020
      TEMPO 2403/2405 4SM -SHRA BR OVC015
     FM240500 00000KT 4SM -SHRA BR OVC015
     FM241100 VRB04KT 4SM -SHRA BR OVC008
     FM241500 02006KT P6SM -SHRA OVC015=

USA.gov is the U.S. government's official web portal to all federal, state and local government web resources and services.